sensor_id;sensor_type;location;lat;lon;timestamp;P1;durP1;ratioP1;P2;durP2;ratioP2
7450;SDS011;3767;42.688;23.360;2022-12-29T00:01:07;27.40;;;14.03;;
7450;SDS011;3767;42.688;23.360;2022-12-29T00:03:34;26.43;;;13.13;;
7450;SDS011;3767;42.688;23.360;2022-12-29T00:06:00;26.87;;;14.00;;
7450;SDS011;3767;42.688;23.360;2022-12-29T00:08:27;24.07;;;12.33;;
7450;SDS011;3767;42.688;23.360;2022-12-29T00:11:05;28.17;;;14.00;;
7450;SDS011;3767;42.688;23.360;2022-12-29T00:13:32;30.67;;;14.77;;
7450;SDS011;3767;42.688;23.360;2022-12-29T00:16:18;31.10;;;14.83;;
7450;SDS011;3767;42.688;23.360;2022-12-29T00:18:44;37.47;;;16.40;;
7450;SDS011;3767;42.688;23.360;2022-12-29T00:21:12;32.77;;;16.20;;
7450;SDS011;3767;42.688;23.360;2022-12-29T00:23:56;35.90;;;15.70;;
7450;SDS011;3767;42.688;23.360;2022-12-29T00:26:40;31.57;;;15.50;;
7450;SDS011;3767;42.688;23.360;2022-12-29T00:29:24;35.27;;;16.73;;
7450;SDS011;3767;42.688;23.360;2022-12-29T00:32:10;40.13;;;16.67;;
7450;SDS011;3767;42.688;23.360;2022-12-29T00:34:54;34.10;;;16.07;;
7450;SDS011;3767;42.688;23.360;2022-12-29T00:37:35;32.53;;;15.00;;
7450;SDS011;3767;42.688;23.360;2022-12-29T00:40:21;33.50;;;14.80;;
7450;SDS011;3767;42.688;23.360;2022-12-29T00:43:05;33.33;;;15.20;;
7450;SDS011;3767;42.688;23.360;2022-12-29T00:45:49;35.60;;;15.30;;
7450;SDS011;3767;42.688;23.360;2022-12-29T00:48:16;30.83;;;14.40;;
7450;SDS011;3767;42.688;23.360;2022-12-29T00:51:04;35.70;;;14.97;;
7450;SDS011;3767;42.688;23.360;2022-12-29T00:53:29;34.37;;;14.90;;
7450;SDS011;3767;42.688;23.360;2022-12-29T00:55:56;28.80;;;14.27;;
7450;SDS011;3767;42.688;23.360;2022-12-29T00:58:22;30.97;;;14.53;;
7450;SDS011;3767;42.688;23.360;2022-12-29T01:00:48;30.33;;;13.40;;
7450;SDS011;3767;42.688;23.360;2022-12-29T01:03:16;26.27;;;13.57;;
7450;SDS011;3767;42.688;23.360;2022-12-29T01:05:43;35.67;;;15.27;;
7450;SDS011;3767;42.688;23.360;2022-12-29T01:08:09;27.87;;;13.67;;
7450;SDS011;3767;42.688;23.360;2022-12-29T01:10:36;31.87;;;13.27;;
7450;SDS011;3767;42.688;23.360;2022-12-29T01:13:01;36.63;;;13.53;;
7450;SDS011;3767;42.688;23.360;2022-12-29T01:15:28;39.43;;;13.63;;
7450;SDS011;3767;42.688;23.360;2022-12-29T01:17:54;32.10;;;13.53;;
7450;SDS011;3767;42.688;23.360;2022-12-29T01:20:22;26.93;;;12.83;;
7450;SDS011;3767;42.688;23.360;2022-12-29T01:22:48;29.23;;;13.43;;
7450;SDS011;3767;42.688;23.360;2022-12-29T01:25:15;33.43;;;13.87;;
7450;SDS011;3767;42.688;23.360;2022-12-29T01:27:41;28.00;;;12.53;;
7450;SDS011;3767;42.688;23.360;2022-12-29T01:30:08;25.10;;;12.63;;
7450;SDS011;3767;42.688;23.360;2022-12-29T01:32:35;29.73;;;13.80;;
7450;SDS011;3767;42.688;23.360;2022-12-29T01:35:01;27.90;;;13.63;;
7450;SDS011;3767;42.688;23.360;2022-12-29T01:37:29;26.00;;;13.10;;
7450;SDS011;3767;42.688;23.360;2022-12-29T01:39:56;25.73;;;12.57;;
7450;SDS011;3767;42.688;23.360;2022-12-29T01:42:23;22.93;;;11.53;;
7450;SDS011;3767;42.688;23.360;2022-12-29T01:44:51;28.40;;;13.17;;
7450;SDS011;3767;42.688;23.360;2022-12-29T01:47:20;28.90;;;12.47;;
7450;SDS011;3767;42.688;23.360;2022-12-29T01:49:48;29.37;;;12.10;;
7450;SDS011;3767;42.688;23.360;2022-12-29T01:52:15;30.37;;;13.10;;
7450;SDS011;3767;42.688;23.360;2022-12-29T01:54:43;29.37;;;13.23;;
7450;SDS011;3767;42.688;23.360;2022-12-29T01:57:13;27.67;;;12.53;;
7450;SDS011;3767;42.688;23.360;2022-12-29T01:59:42;26.73;;;13.20;;
7450;SDS011;3767;42.688;23.360;2022-12-29T02:02:09;25.97;;;12.80;;
7450;SDS011;3767;42.688;23.360;2022-12-29T02:04:36;24.63;;;11.83;;
7450;SDS011;3767;42.688;23.360;2022-12-29T02:07:06;25.97;;;12.03;;
7450;SDS011;3767;42.688;23.360;2022-12-29T02:09:34;25.13;;;11.30;;
7450;SDS011;3767;42.688;23.360;2022-12-29T02:12:03;23.63;;;11.33;;
7450;SDS011;3767;42.688;23.360;2022-12-29T02:14:29;23.03;;;11.30;;
7450;SDS011;3767;42.688;23.360;2022-12-29T02:16:59;22.60;;;11.17;;
7450;SDS011;3767;42.688;23.360;2022-12-29T02:22:15;24.23;;;11.70;;
7450;SDS011;3767;42.688;23.360;2022-12-29T02:30:44;34.67;;;12.30;;
7450;SDS011;3767;42.688;23.360;2022-12-29T02:33:13;27.27;;;11.13;;
7450;SDS011;3767;42.688;23.360;2022-12-29T02:35:44;29.23;;;11.60;;
7450;SDS011;3767;42.688;23.360;2022-12-29T02:38:13;28.17;;;11.47;;
7450;SDS011;3767;42.688;23.360;2022-12-29T02:40:43;30.90;;;11.93;;
7450;SDS011;3767;42.688;23.360;2022-12-29T02:43:13;29.83;;;12.10;;
7450;SDS011;3767;42.688;23.360;2022-12-29T02:45:43;30.03;;;12.50;;
7450;SDS011;3767;42.688;23.360;2022-12-29T02:48:15;33.10;;;11.90;;
7450;SDS011;3767;42.688;23.360;2022-12-29T02:50:43;34.30;;;12.23;;
7450;SDS011;3767;42.688;23.360;2022-12-29T02:53:15;37.73;;;11.63;;
7450;SDS011;3767;42.688;23.360;2022-12-29T02:55:47;32.33;;;11.60;;
7450;SDS011;3767;42.688;23.360;2022-12-29T02:58:17;24.57;;;10.57;;
7450;SDS011;3767;42.688;23.360;2022-12-29T03:00:47;27.90;;;12.07;;
7450;SDS011;3767;42.688;23.360;2022-12-29T03:03:18;26.67;;;11.60;;
7450;SDS011;3767;42.688;23.360;2022-12-29T03:05:56;31.13;;;11.73;;
7450;SDS011;3767;42.688;23.360;2022-12-29T03:08:27;27.37;;;11.37;;
7450;SDS011;3767;42.688;23.360;2022-12-29T03:10:56;26.60;;;11.60;;
7450;SDS011;3767;42.688;23.360;2022-12-29T03:13:26;30.17;;;12.43;;
7450;SDS011;3767;42.688;23.360;2022-12-29T03:16:14;37.13;;;13.23;;
7450;SDS011;3767;42.688;23.360;2022-12-29T03:18:46;38.60;;;13.67;;
7450;SDS011;3767;42.688;23.360;2022-12-29T03:21:14;42.33;;;13.63;;
7450;SDS011;3767;42.688;23.360;2022-12-29T03:23:42;30.43;;;12.03;;
7450;SDS011;3767;42.688;23.360;2022-12-29T03:26:12;30.60;;;11.57;;
7450;SDS011;3767;42.688;23.360;2022-12-29T03:28:41;26.60;;;11.93;;
7450;SDS011;3767;42.688;23.360;2022-12-29T03:31:10;31.93;;;14.23;;
7450;SDS011;3767;42.688;23.360;2022-12-29T03:33:39;26.50;;;13.63;;
7450;SDS011;3767;42.688;23.360;2022-12-29T03:36:09;25.63;;;13.50;;
7450;SDS011;3767;42.688;23.360;2022-12-29T03:38:39;29.83;;;13.70;;
7450;SDS011;3767;42.688;23.360;2022-12-29T03:41:08;29.67;;;14.07;;
7450;SDS011;3767;42.688;23.360;2022-12-29T03:43:35;28.10;;;13.00;;
7450;SDS011;3767;42.688;23.360;2022-12-29T03:46:02;34.13;;;14.03;;
7450;SDS011;3767;42.688;23.360;2022-12-29T03:48:28;26.93;;;13.53;;
7450;SDS011;3767;42.688;23.360;2022-12-29T03:50:55;27.57;;;13.03;;
7450;SDS011;3767;42.688;23.360;2022-12-29T03:53:22;29.27;;;13.13;;
7450;SDS011;3767;42.688;23.360;2022-12-29T03:55:49;26.57;;;13.27;;
7450;SDS011;3767;42.688;23.360;2022-12-29T03:58:16;32.53;;;13.40;;
7450;SDS011;3767;42.688;23.360;2022-12-29T04:00:42;32.80;;;13.63;;
7450;SDS011;3767;42.688;23.360;2022-12-29T04:03:11;29.63;;;12.43;;
7450;SDS011;3767;42.688;23.360;2022-12-29T04:05:37;38.40;;;13.77;;
7450;SDS011;3767;42.688;23.360;2022-12-29T04:08:04;31.97;;;14.13;;
7450;SDS011;3767;42.688;23.360;2022-12-29T04:10:32;30.97;;;13.50;;
7450;SDS011;3767;42.688;23.360;2022-12-29T04:12:58;28.23;;;12.60;;
7450;SDS011;3767;42.688;23.360;2022-12-29T04:15:25;34.13;;;14.17;;
7450;SDS011;3767;42.688;23.360;2022-12-29T04:17:51;29.93;;;13.47;;
7450;SDS011;3767;42.688;23.360;2022-12-29T04:20:18;31.80;;;13.90;;
7450;SDS011;3767;42.688;23.360;2022-12-29T04:23:02;33.47;;;14.13;;
7450;SDS011;3767;42.688;23.360;2022-12-29T04:25:30;29.83;;;13.40;;
7450;SDS011;3767;42.688;23.360;2022-12-29T04:27:58;28.43;;;13.10;;
7450;SDS011;3767;42.688;23.360;2022-12-29T04:30:24;30.00;;;13.63;;
7450;SDS011;3767;42.688;23.360;2022-12-29T04:32:51;29.63;;;12.27;;
7450;SDS011;3767;42.688;23.360;2022-12-29T04:35:18;24.73;;;11.17;;
7450;SDS011;3767;42.688;23.360;2022-12-29T04:37:45;30.67;;;12.73;;
7450;SDS011;3767;42.688;23.360;2022-12-29T04:40:11;27.60;;;11.23;;
7450;SDS011;3767;42.688;23.360;2022-12-29T04:42:38;30.40;;;11.63;;
7450;SDS011;3767;42.688;23.360;2022-12-29T04:45:06;29.50;;;11.80;;
7450;SDS011;3767;42.688;23.360;2022-12-29T04:47:33;30.30;;;11.90;;
7450;SDS011;3767;42.688;23.360;2022-12-29T04:50:00;25.37;;;10.87;;
7450;SDS011;3767;42.688;23.360;2022-12-29T04:52:26;28.87;;;12.07;;
7450;SDS011;3767;42.688;23.360;2022-12-29T04:54:53;22.27;;;11.10;;
7450;SDS011;3767;42.688;23.360;2022-12-29T04:57:19;23.83;;;10.93;;
7450;SDS011;3767;42.688;23.360;2022-12-29T04:59:46;27.40;;;11.10;;
7450;SDS011;3767;42.688;23.360;2022-12-29T05:02:14;24.73;;;11.40;;
7450;SDS011;3767;42.688;23.360;2022-12-29T05:04:40;32.50;;;12.17;;
7450;SDS011;3767;42.688;23.360;2022-12-29T05:07:07;23.40;;;10.77;;
7450;SDS011;3767;42.688;23.360;2022-12-29T05:09:33;31.13;;;11.57;;
7450;SDS011;3767;42.688;23.360;2022-12-29T05:12:00;26.63;;;10.97;;
7450;SDS011;3767;42.688;23.360;2022-12-29T05:14:26;35.43;;;12.57;;
7450;SDS011;3767;42.688;23.360;2022-12-29T05:16:52;37.70;;;12.43;;
7450;SDS011;3767;42.688;23.360;2022-12-29T05:19:20;35.73;;;11.57;;
7450;SDS011;3767;42.688;23.360;2022-12-29T05:21:47;33.07;;;11.80;;
7450;SDS011;3767;42.688;23.360;2022-12-29T05:24:13;30.43;;;11.57;;
7450;SDS011;3767;42.688;23.360;2022-12-29T05:26:40;26.97;;;10.30;;
7450;SDS011;3767;42.688;23.360;2022-12-29T05:29:06;25.67;;;11.43;;
7450;SDS011;3767;42.688;23.360;2022-12-29T05:31:33;28.50;;;11.30;;
7450;SDS011;3767;42.688;23.360;2022-12-29T05:34:00;23.67;;;11.10;;
7450;SDS011;3767;42.688;23.360;2022-12-29T05:36:28;24.77;;;11.00;;
7450;SDS011;3767;42.688;23.360;2022-12-29T05:38:54;29.57;;;11.53;;
7450;SDS011;3767;42.688;23.360;2022-12-29T05:41:21;27.03;;;11.97;;
7450;SDS011;3767;42.688;23.360;2022-12-29T05:43:47;29.73;;;12.50;;
7450;SDS011;3767;42.688;23.360;2022-12-29T05:46:14;29.37;;;13.17;;
7450;SDS011;3767;42.688;23.360;2022-12-29T05:48:40;32.57;;;12.67;;
7450;SDS011;3767;42.688;23.360;2022-12-29T05:51:07;35.23;;;12.77;;
7450;SDS011;3767;42.688;23.360;2022-12-29T05:53:34;31.27;;;12.50;;
7450;SDS011;3767;42.688;23.360;2022-12-29T05:56:01;23.67;;;11.80;;
7450;SDS011;3767;42.688;23.360;2022-12-29T05:58:28;28.90;;;11.90;;
7450;SDS011;3767;42.688;23.360;2022-12-29T06:00:54;24.40;;;11.43;;
7450;SDS011;3767;42.688;23.360;2022-12-29T06:03:21;29.33;;;14.33;;
7450;SDS011;3767;42.688;23.360;2022-12-29T06:05:48;29.23;;;14.00;;
7450;SDS011;3767;42.688;23.360;2022-12-29T06:08:14;26.87;;;13.50;;
7450;SDS011;3767;42.688;23.360;2022-12-29T06:10:42;33.23;;;15.23;;
7450;SDS011;3767;42.688;23.360;2022-12-29T06:13:08;35.50;;;15.17;;
7450;SDS011;3767;42.688;23.360;2022-12-29T06:15:35;38.87;;;15.40;;
7450;SDS011;3767;42.688;23.360;2022-12-29T06:18:02;114.50;;;42.00;;
7450;SDS011;3767;42.688;23.360;2022-12-29T06:20:28;91.70;;;34.10;;
7450;SDS011;3767;42.688;23.360;2022-12-29T06:22:55;36.70;;;15.10;;
7450;SDS011;3767;42.688;23.360;2022-12-29T06:25:21;30.53;;;14.07;;
7450;SDS011;3767;42.688;23.360;2022-12-29T06:27:49;35.73;;;14.23;;
7450;SDS011;3767;42.688;23.360;2022-12-29T06:30:16;34.30;;;14.37;;
7450;SDS011;3767;42.688;23.360;2022-12-29T06:32:43;32.87;;;13.80;;
7450;SDS011;3767;42.688;23.360;2022-12-29T06:35:10;29.87;;;14.03;;
7450;SDS011;3767;42.688;23.360;2022-12-29T06:37:37;33.20;;;14.37;;
7450;SDS011;3767;42.688;23.360;2022-12-29T06:40:04;36.20;;;15.47;;
7450;SDS011;3767;42.688;23.360;2022-12-29T06:42:30;37.97;;;16.83;;
7450;SDS011;3767;42.688;23.360;2022-12-29T06:44:58;35.00;;;17.27;;
7450;SDS011;3767;42.688;23.360;2022-12-29T06:47:25;33.20;;;16.43;;
7450;SDS011;3767;42.688;23.360;2022-12-29T06:49:52;32.50;;;15.60;;
7450;SDS011;3767;42.688;23.360;2022-12-29T06:52:18;35.20;;;15.43;;
7450;SDS011;3767;42.688;23.360;2022-12-29T06:54:45;37.00;;;15.40;;
7450;SDS011;3767;42.688;23.360;2022-12-29T06:57:11;32.67;;;14.70;;
7450;SDS011;3767;42.688;23.360;2022-12-29T06:59:38;37.43;;;15.43;;
7450;SDS011;3767;42.688;23.360;2022-12-29T07:02:05;36.63;;;15.10;;
7450;SDS011;3767;42.688;23.360;2022-12-29T07:04:32;29.53;;;14.60;;
7450;SDS011;3767;42.688;23.360;2022-12-29T07:06:58;36.77;;;15.67;;
7450;SDS011;3767;42.688;23.360;2022-12-29T07:09:25;40.97;;;16.23;;
7450;SDS011;3767;42.688;23.360;2022-12-29T07:11:51;33.57;;;15.13;;
7450;SDS011;3767;42.688;23.360;2022-12-29T07:14:18;31.53;;;14.93;;
7450;SDS011;3767;42.688;23.360;2022-12-29T07:16:44;36.83;;;15.57;;
7450;SDS011;3767;42.688;23.360;2022-12-29T07:19:12;34.83;;;15.60;;
7450;SDS011;3767;42.688;23.360;2022-12-29T07:21:39;32.00;;;15.97;;
7450;SDS011;3767;42.688;23.360;2022-12-29T07:24:05;38.33;;;15.70;;
7450;SDS011;3767;42.688;23.360;2022-12-29T07:26:33;36.83;;;16.57;;
7450;SDS011;3767;42.688;23.360;2022-12-29T07:29:01;48.20;;;18.47;;
7450;SDS011;3767;42.688;23.360;2022-12-29T07:31:27;38.80;;;17.57;;
7450;SDS011;3767;42.688;23.360;2022-12-29T07:33:54;35.67;;;16.33;;
7450;SDS011;3767;42.688;23.360;2022-12-29T07:36:22;36.23;;;16.90;;
7450;SDS011;3767;42.688;23.360;2022-12-29T07:38:48;44.50;;;18.87;;
7450;SDS011;3767;42.688;23.360;2022-12-29T07:41:15;45.07;;;18.13;;
7450;SDS011;3767;42.688;23.360;2022-12-29T07:43:41;35.83;;;18.33;;
7450;SDS011;3767;42.688;23.360;2022-12-29T07:46:08;51.80;;;19.83;;
7450;SDS011;3767;42.688;23.360;2022-12-29T07:48:35;36.30;;;18.47;;
7450;SDS011;3767;42.688;23.360;2022-12-29T07:51:01;35.30;;;18.33;;
7450;SDS011;3767;42.688;23.360;2022-12-29T07:53:29;37.37;;;17.60;;
7450;SDS011;3767;42.688;23.360;2022-12-29T07:55:55;33.63;;;17.17;;
7450;SDS011;3767;42.688;23.360;2022-12-29T07:58:22;41.67;;;18.00;;
7450;SDS011;3767;42.688;23.360;2022-12-29T08:00:52;50.53;;;19.80;;
7450;SDS011;3767;42.688;23.360;2022-12-29T08:03:18;47.90;;;18.97;;
7450;SDS011;3767;42.688;23.360;2022-12-29T08:05:45;35.43;;;16.40;;
7450;SDS011;3767;42.688;23.360;2022-12-29T08:08:11;37.60;;;16.83;;
7450;SDS011;3767;42.688;23.360;2022-12-29T08:10:39;32.33;;;15.83;;
7450;SDS011;3767;42.688;23.360;2022-12-29T08:13:06;32.20;;;15.83;;
7450;SDS011;3767;42.688;23.360;2022-12-29T08:15:32;40.10;;;19.03;;
7450;SDS011;3767;42.688;23.360;2022-12-29T08:17:59;33.87;;;17.23;;
7450;SDS011;3767;42.688;23.360;2022-12-29T08:20:25;35.60;;;17.20;;
7450;SDS011;3767;42.688;23.360;2022-12-29T08:22:52;35.43;;;16.63;;
7450;SDS011;3767;42.688;23.360;2022-12-29T08:25:18;35.80;;;16.27;;
7450;SDS011;3767;42.688;23.360;2022-12-29T08:27:47;34.00;;;16.27;;
7450;SDS011;3767;42.688;23.360;2022-12-29T08:30:13;38.67;;;16.70;;
7450;SDS011;3767;42.688;23.360;2022-12-29T08:32:39;42.47;;;18.10;;
7450;SDS011;3767;42.688;23.360;2022-12-29T08:35:06;45.33;;;18.27;;
7450;SDS011;3767;42.688;23.360;2022-12-29T08:37:33;43.13;;;17.47;;
7450;SDS011;3767;42.688;23.360;2022-12-29T08:40:00;38.97;;;17.77;;
7450;SDS011;3767;42.688;23.360;2022-12-29T08:42:28;34.27;;;17.20;;
7450;SDS011;3767;42.688;23.360;2022-12-29T08:44:57;37.73;;;16.80;;
7450;SDS011;3767;42.688;23.360;2022-12-29T08:47:24;31.87;;;16.53;;
7450;SDS011;3767;42.688;23.360;2022-12-29T08:49:50;30.37;;;15.83;;
7450;SDS011;3767;42.688;23.360;2022-12-29T08:52:17;31.00;;;16.07;;
7450;SDS011;3767;42.688;23.360;2022-12-29T08:54:44;31.30;;;15.87;;
7450;SDS011;3767;42.688;23.360;2022-12-29T08:57:10;35.90;;;15.57;;
7450;SDS011;3767;42.688;23.360;2022-12-29T08:59:37;28.27;;;15.53;;
7450;SDS011;3767;42.688;23.360;2022-12-29T09:02:05;26.20;;;14.85;;
7450;SDS011;3767;42.688;23.360;2022-12-29T09:04:31;27.95;;;14.43;;
7450;SDS011;3767;42.688;23.360;2022-12-29T09:06:58;27.02;;;14.93;;
7450;SDS011;3767;42.688;23.360;2022-12-29T09:09:24;40.80;;;17.02;;
7450;SDS011;3767;42.688;23.360;2022-12-29T09:11:51;34.30;;;16.15;;
7450;SDS011;3767;42.688;23.360;2022-12-29T09:14:17;37.92;;;16.08;;
7450;SDS011;3767;42.688;23.360;2022-12-29T09:16:44;34.72;;;15.35;;
7450;SDS011;3767;42.688;23.360;2022-12-29T09:19:29;39.90;;;16.65;;
7450;SDS011;3767;42.688;23.360;2022-12-29T09:21:56;33.85;;;15.95;;
7450;SDS011;3767;42.688;23.360;2022-12-29T09:24:22;29.90;;;14.77;;
7450;SDS011;3767;42.688;23.360;2022-12-29T09:26:49;32.00;;;16.23;;
7450;SDS011;3767;42.688;23.360;2022-12-29T09:29:15;28.20;;;15.32;;
7450;SDS011;3767;42.688;23.360;2022-12-29T09:31:42;32.28;;;17.63;;
7450;SDS011;3767;42.688;23.360;2022-12-29T09:34:08;31.77;;;15.77;;
7450;SDS011;3767;42.688;23.360;2022-12-29T09:36:36;26.42;;;15.38;;
7450;SDS011;3767;42.688;23.360;2022-12-29T09:39:03;25.55;;;15.13;;
7450;SDS011;3767;42.688;23.360;2022-12-29T09:41:30;29.27;;;15.20;;
7450;SDS011;3767;42.688;23.360;2022-12-29T09:44:01;49.63;;;19.65;;
7450;SDS011;3767;42.688;23.360;2022-12-29T09:46:29;29.80;;;16.25;;
7450;SDS011;3767;42.688;23.360;2022-12-29T09:49:02;30.08;;;16.17;;
7450;SDS011;3767;42.688;23.360;2022-12-29T09:51:31;30.10;;;16.17;;
7450;SDS011;3767;42.688;23.360;2022-12-29T09:54:02;46.47;;;31.25;;
7450;SDS011;3767;42.688;23.360;2022-12-29T09:56:30;27.48;;;16.20;;
7450;SDS011;3767;42.688;23.360;2022-12-29T09:58:57;41.28;;;17.52;;
7450;SDS011;3767;42.688;23.360;2022-12-29T10:01:27;36.35;;;17.00;;
7450;SDS011;3767;42.688;23.360;2022-12-29T10:03:55;33.70;;;16.95;;
7450;SDS011;3767;42.688;23.360;2022-12-29T10:06:22;28.27;;;16.23;;
7450;SDS011;3767;42.688;23.360;2022-12-29T10:08:52;28.17;;;16.10;;
7450;SDS011;3767;42.688;23.360;2022-12-29T10:11:25;28.17;;;16.15;;
7450;SDS011;3767;42.688;23.360;2022-12-29T10:14:01;36.55;;;18.33;;
7450;SDS011;3767;42.688;23.360;2022-12-29T10:16:31;33.30;;;16.88;;
7450;SDS011;3767;42.688;23.360;2022-12-29T10:21:47;46.67;;;19.02;;
7450;SDS011;3767;42.688;23.360;2022-12-29T10:24:18;25.05;;;16.88;;
7450;SDS011;3767;42.688;23.360;2022-12-29T10:26:46;23.92;;;15.80;;
7450;SDS011;3767;42.688;23.360;2022-12-29T10:29:15;40.85;;;19.10;;
7450;SDS011;3767;42.688;23.360;2022-12-29T10:31:43;25.77;;;17.00;;
7450;SDS011;3767;42.688;23.360;2022-12-29T10:34:12;26.98;;;16.48;;
7450;SDS011;3767;42.688;23.360;2022-12-29T10:36:41;107.30;;;96.95;;
7450;SDS011;3767;42.688;23.360;2022-12-29T10:39:11;89.20;;;80.20;;
7450;SDS011;3767;42.688;23.360;2022-12-29T10:41:41;133.32;;;120.70;;
7450;SDS011;3767;42.688;23.360;2022-12-29T10:44:13;27.98;;;16.20;;
7450;SDS011;3767;42.688;23.360;2022-12-29T10:46:41;184.07;;;165.55;;
7450;SDS011;3767;42.688;23.360;2022-12-29T10:49:10;515.20;;;466.80;;
7450;SDS011;3767;42.688;23.360;2022-12-29T10:51:41;701.70;;;637.15;;
7450;SDS011;3767;42.688;23.360;2022-12-29T10:54:10;782.83;;;711.38;;
7450;SDS011;3767;42.688;23.360;2022-12-29T10:56:38;638.08;;;577.90;;
7450;SDS011;3767;42.688;23.360;2022-12-29T10:59:10;364.67;;;326.50;;
7450;SDS011;3767;42.688;23.360;2022-12-29T11:01:41;595.75;;;539.75;;
7450;SDS011;3767;42.688;23.360;2022-12-29T11:04:16;539.03;;;485.55;;
7450;SDS011;3767;42.688;23.360;2022-12-29T11:06:46;220.98;;;199.35;;
7450;SDS011;3767;42.688;23.360;2022-12-29T11:09:13;211.82;;;191.85;;
7450;SDS011;3767;42.688;23.360;2022-12-29T11:11:41;207.75;;;188.30;;
7450;SDS011;3767;42.688;23.360;2022-12-29T11:14:12;276.63;;;249.23;;
7450;SDS011;3767;42.688;23.360;2022-12-29T11:16:40;293.30;;;264.00;;
7450;SDS011;3767;42.688;23.360;2022-12-29T11:19:19;298.98;;;268.90;;
7450;SDS011;3767;42.688;23.360;2022-12-29T11:21:46;286.67;;;257.33;;
7450;SDS011;3767;42.688;23.360;2022-12-29T11:24:18;290.98;;;261.55;;
7450;SDS011;3767;42.688;23.360;2022-12-29T11:26:45;272.25;;;245.45;;
7450;SDS011;3767;42.688;23.360;2022-12-29T11:29:22;267.00;;;240.45;;
7450;SDS011;3767;42.688;23.360;2022-12-29T11:31:51;253.02;;;228.80;;
7450;SDS011;3767;42.688;23.360;2022-12-29T11:34:20;202.13;;;181.85;;
7450;SDS011;3767;42.688;23.360;2022-12-29T11:36:47;196.13;;;177.60;;
7450;SDS011;3767;42.688;23.360;2022-12-29T11:39:28;177.95;;;160.88;;
7450;SDS011;3767;42.688;23.360;2022-12-29T11:41:55;213.00;;;192.88;;
7450;SDS011;3767;42.688;23.360;2022-12-29T11:44:22;196.95;;;177.45;;
7450;SDS011;3767;42.688;23.360;2022-12-29T11:46:50;199.35;;;180.23;;
7450;SDS011;3767;42.688;23.360;2022-12-29T11:49:19;186.40;;;168.48;;
7450;SDS011;3767;42.688;23.360;2022-12-29T11:51:46;225.88;;;203.98;;
7450;SDS011;3767;42.688;23.360;2022-12-29T11:54:15;183.38;;;165.13;;
7450;SDS011;3767;42.688;23.360;2022-12-29T11:56:43;164.63;;;148.80;;
7450;SDS011;3767;42.688;23.360;2022-12-29T12:01:56;161.30;;;145.18;;
7450;SDS011;3767;42.688;23.360;2022-12-29T12:04:24;266.48;;;239.82;;
7450;SDS011;3767;42.688;23.360;2022-12-29T12:09:35;231.68;;;208.82;;
7450;SDS011;3767;42.688;23.360;2022-12-29T12:12:03;256.45;;;230.90;;
7450;SDS011;3767;42.688;23.360;2022-12-29T12:14:34;502.23;;;449.08;;
7450;SDS011;3767;42.688;23.360;2022-12-29T12:17:05;545.83;;;488.23;;
7450;SDS011;3767;42.688;23.360;2022-12-29T12:19:33;224.85;;;203.10;;
7450;SDS011;3767;42.688;23.360;2022-12-29T12:22:02;249.95;;;224.45;;
7450;SDS011;3767;42.688;23.360;2022-12-29T12:24:39;222.02;;;200.82;;
7450;SDS011;3767;42.688;23.360;2022-12-29T12:27:10;168.57;;;152.57;;
7450;SDS011;3767;42.688;23.360;2022-12-29T12:29:41;224.35;;;201.75;;
7450;SDS011;3767;42.688;23.360;2022-12-29T12:32:12;216.88;;;194.65;;
7450;SDS011;3767;42.688;23.360;2022-12-29T12:34:41;213.70;;;192.85;;
7450;SDS011;3767;42.688;23.360;2022-12-29T12:37:15;204.82;;;184.77;;
7450;SDS011;3767;42.688;23.360;2022-12-29T12:39:47;234.75;;;212.82;;
7450;SDS011;3767;42.688;23.360;2022-12-29T12:42:23;217.15;;;196.48;;
7450;SDS011;3767;42.688;23.360;2022-12-29T12:44:54;128.93;;;116.68;;
7450;SDS011;3767;42.688;23.360;2022-12-29T12:47:35;137.98;;;125.22;;
7450;SDS011;3767;42.688;23.360;2022-12-29T12:53:07;173.98;;;156.60;;
7450;SDS011;3767;42.688;23.360;2022-12-29T12:55:49;154.60;;;139.27;;
7450;SDS011;3767;42.688;23.360;2022-12-29T12:58:21;110.75;;;100.95;;
7450;SDS011;3767;42.688;23.360;2022-12-29T13:00:54;145.95;;;132.23;;
7450;SDS011;3767;42.688;23.360;2022-12-29T13:03:26;178.90;;;161.52;;
7450;SDS011;3767;42.688;23.360;2022-12-29T13:06:02;569.00;;;511.45;;
7450;SDS011;3767;42.688;23.360;2022-12-29T13:08:34;569.78;;;511.73;;
7450;SDS011;3767;42.688;23.360;2022-12-29T13:11:06;629.85;;;568.00;;
7450;SDS011;3767;42.688;23.360;2022-12-29T13:13:43;511.45;;;458.83;;
7450;SDS011;3767;42.688;23.360;2022-12-29T13:16:15;379.40;;;339.88;;
7450;SDS011;3767;42.688;23.360;2022-12-29T13:18:46;600.58;;;541.70;;
7450;SDS011;3767;42.688;23.360;2022-12-29T13:21:25;147.48;;;133.27;;
7450;SDS011;3767;42.688;23.360;2022-12-29T13:23:55;179.25;;;162.15;;
7450;SDS011;3767;42.688;23.360;2022-12-29T13:26:23;255.07;;;228.90;;
7450;SDS011;3767;42.688;23.360;2022-12-29T13:28:53;228.82;;;206.77;;
7450;SDS011;3767;42.688;23.360;2022-12-29T13:31:24;234.52;;;212.32;;
7450;SDS011;3767;42.688;23.360;2022-12-29T13:33:57;117.15;;;105.43;;
7450;SDS011;3767;42.688;23.360;2022-12-29T13:36:29;140.15;;;126.22;;
7450;SDS011;3767;42.688;23.360;2022-12-29T13:38:59;51.33;;;40.40;;
7450;SDS011;3767;42.688;23.360;2022-12-29T13:41:28;65.35;;;56.80;;
7450;SDS011;3767;42.688;23.360;2022-12-29T13:43:55;178.85;;;160.30;;
7450;SDS011;3767;42.688;23.360;2022-12-29T13:46:23;570.10;;;510.67;;
7450;SDS011;3767;42.688;23.360;2022-12-29T13:48:51;695.95;;;628.30;;
7450;SDS011;3767;42.688;23.360;2022-12-29T13:51:20;679.00;;;613.80;;
7450;SDS011;3767;42.688;23.360;2022-12-29T13:53:56;734.13;;;663.67;;
7450;SDS011;3767;42.688;23.360;2022-12-29T13:56:26;144.95;;;130.38;;
7450;SDS011;3767;42.688;23.360;2022-12-29T13:58:57;52.95;;;24.15;;
7450;SDS011;3767;42.688;23.360;2022-12-29T14:01:29;57.42;;;30.00;;
7450;SDS011;3767;42.688;23.360;2022-12-29T14:03:57;42.53;;;20.63;;
7450;SDS011;3767;42.688;23.360;2022-12-29T14:06:25;43.00;;;19.70;;
7450;SDS011;3767;42.688;23.360;2022-12-29T14:08:53;34.08;;;19.63;;
7450;SDS011;3767;42.688;23.360;2022-12-29T14:11:21;32.17;;;17.98;;
7450;SDS011;3767;42.688;23.360;2022-12-29T14:13:51;29.70;;;16.25;;
7450;SDS011;3767;42.688;23.360;2022-12-29T14:16:27;32.47;;;15.40;;
7450;SDS011;3767;42.688;23.360;2022-12-29T14:18:55;27.97;;;14.90;;
7450;SDS011;3767;42.688;23.360;2022-12-29T14:21:23;28.37;;;14.47;;
7450;SDS011;3767;42.688;23.360;2022-12-29T14:23:56;34.27;;;15.53;;
7450;SDS011;3767;42.688;23.360;2022-12-29T14:26:33;26.43;;;14.47;;
7450;SDS011;3767;42.688;23.360;2022-12-29T14:29:15;34.17;;;14.50;;
7450;SDS011;3767;42.688;23.360;2022-12-29T14:31:42;25.17;;;14.17;;
7450;SDS011;3767;42.688;23.360;2022-12-29T14:34:28;30.13;;;15.37;;
7450;SDS011;3767;42.688;23.360;2022-12-29T14:36:55;29.83;;;15.67;;
7450;SDS011;3767;42.688;23.360;2022-12-29T14:39:37;35.53;;;16.10;;
7450;SDS011;3767;42.688;23.360;2022-12-29T14:42:04;30.77;;;15.50;;
7450;SDS011;3767;42.688;23.360;2022-12-29T14:44:31;31.37;;;15.47;;
7450;SDS011;3767;42.688;23.360;2022-12-29T14:46:58;40.77;;;17.27;;
7450;SDS011;3767;42.688;23.360;2022-12-29T14:49:26;33.07;;;15.70;;
7450;SDS011;3767;42.688;23.360;2022-12-29T14:51:54;31.97;;;15.23;;
7450;SDS011;3767;42.688;23.360;2022-12-29T14:57:19;41.90;;;17.50;;
7450;SDS011;3767;42.688;23.360;2022-12-29T14:59:46;38.03;;;18.20;;
7450;SDS011;3767;42.688;23.360;2022-12-29T15:02:15;104.70;;;40.63;;